createdAt,value
2023-04-23T00:01:05.662Z,68.00
2023-04-23T00:03:34.523Z,69.60
2023-04-23T00:06:05.763Z,67.68
2023-04-23T00:08:34.820Z,68.88
2023-04-23T00:11:03.502Z,69.53
2023-04-23T00:13:31.799Z,70.40
2023-04-23T00:16:00.337Z,69.65
2023-04-23T00:18:30.034Z,74.97
2023-04-23T00:20:58.159Z,76.30
2023-04-23T00:23:26.207Z,78.75
2023-04-23T00:25:54.097Z,74.82
2023-04-23T00:28:22.367Z,69.28
2023-04-23T00:30:51.052Z,72.05
2023-04-23T00:33:19.096Z,69.35
2023-04-23T00:35:48.681Z,68.90
2023-04-23T00:38:16.946Z,71.35
2023-04-23T00:40:44.981Z,70.22
2023-04-23T00:43:13.724Z,70.00
2023-04-23T00:45:41.795Z,71.40
2023-04-23T00:48:09.934Z,69.22
2023-04-23T00:50:38.330Z,71.75
2023-04-23T00:53:07.659Z,70.35
2023-04-23T00:55:36.535Z,72.00
2023-04-23T00:58:06.617Z,72.35
2023-04-23T01:00:38.584Z,72.85
2023-04-23T01:03:06.744Z,70.65
2023-04-23T01:05:34.781Z,75.05
2023-04-23T01:08:03.058Z,72.20
2023-04-23T01:10:33.585Z,72.40
2023-04-23T01:13:01.506Z,75.07
2023-04-23T01:15:29.484Z,68.13
2023-04-23T01:17:58.607Z,69.88
2023-04-23T01:20:26.688Z,71.30
2023-04-23T01:22:56.266Z,70.13
2023-04-23T01:25:24.190Z,69.90
2023-04-23T01:27:52.197Z,71.10
2023-04-23T01:30:20.592Z,71.50
2023-04-23T01:32:49.492Z,73.32
2023-04-23T01:35:17.464Z,73.30
2023-04-23T01:37:47.168Z,69.80
2023-04-23T01:40:16.687Z,73.90
2023-04-23T01:42:44.692Z,67.68
2023-04-23T01:45:13.062Z,71.45
2023-04-23T01:47:42.054Z,68.70
2023-04-23T01:50:10.820Z,69.97
2023-04-23T01:52:39.067Z,68.63
2023-04-23T01:55:07.350Z,65.60
2023-04-23T01:57:36.750Z,65.55
2023-04-23T02:00:09.035Z,66.03
2023-04-23T02:02:37.231Z,67.40
2023-04-23T02:05:06.989Z,63.93
2023-04-23T02:07:36.855Z,60.50
2023-04-23T02:10:05.443Z,66.10
2023-04-23T02:12:33.405Z,62.50
2023-04-23T02:15:02.775Z,61.00
2023-04-23T02:17:31.017Z,57.13
2023-04-23T02:19:59.054Z,56.50
2023-04-23T02:22:27.017Z,53.67
2023-04-23T02:24:55.662Z,53.83
2023-04-23T02:27:23.654Z,49.60
2023-04-23T02:29:51.863Z,47.70
2023-04-23T02:32:21.273Z,55.38
2023-04-23T02:34:49.149Z,52.60
2023-04-23T02:37:17.145Z,49.58
2023-04-23T02:39:45.099Z,43.63
2023-04-23T02:42:12.988Z,48.13
2023-04-23T02:44:41.232Z,47.20
2023-04-23T02:47:09.336Z,42.72
2023-04-23T02:49:38.657Z,47.50
2023-04-23T02:52:06.706Z,47.80
2023-04-23T02:54:34.601Z,46.17
2023-04-23T02:57:03.029Z,43.65
2023-04-23T02:59:31.037Z,44.25
2023-04-23T03:01:59.391Z,42.13
2023-04-23T03:04:27.675Z,41.10
2023-04-23T03:06:57.476Z,40.80
2023-04-23T03:09:25.531Z,40.33
2023-04-23T03:11:53.475Z,41.53
2023-04-23T03:14:21.440Z,41.90
2023-04-23T03:16:49.492Z,40.58
2023-04-23T03:19:17.769Z,39.83
2023-04-23T03:21:45.726Z,41.87
2023-04-23T03:24:16.126Z,37.35
2023-04-23T03:26:44.043Z,38.78
2023-04-23T03:29:11.981Z,39.22
2023-04-23T03:31:39.984Z,36.87
2023-04-23T03:34:08.167Z,39.10
2023-04-23T03:36:36.114Z,38.60
2023-04-23T03:39:04.045Z,36.73
2023-04-23T03:41:33.318Z,38.42
2023-04-23T03:44:01.260Z,32.70
2023-04-23T03:46:29.258Z,35.33
2023-04-23T03:48:57.262Z,36.10
2023-04-23T03:51:25.351Z,37.65
2023-04-23T03:53:53.210Z,36.38
2023-04-23T03:56:21.252Z,35.63
2023-04-23T03:58:50.584Z,37.28
2023-04-23T04:01:19.092Z,30.67
2023-04-23T04:03:47.320Z,34.33
2023-04-23T04:06:15.791Z,35.28
2023-04-23T04:08:43.674Z,34.83
2023-04-23T04:11:11.591Z,33.20
2023-04-23T04:13:39.510Z,35.95
2023-04-23T04:16:09.325Z,32.67
2023-04-23T04:18:37.323Z,32.22
2023-04-23T04:21:05.807Z,32.72
2023-04-23T04:23:34.219Z,33.38
2023-04-23T04:26:02.372Z,36.03
2023-04-23T04:28:30.364Z,34.17
2023-04-23T04:30:58.548Z,34.42
2023-04-23T04:33:29.158Z,34.53
2023-04-23T04:35:59.489Z,33.47
2023-04-23T04:38:27.510Z,33.42
2023-04-23T04:41:00.201Z,34.08
2023-04-23T04:43:28.155Z,36.33
2023-04-23T04:45:56.101Z,35.10
2023-04-23T04:48:24.054Z,32.70
2023-04-23T04:50:53.439Z,34.30
2023-04-23T04:53:21.385Z,31.40
2023-04-23T04:55:49.478Z,34.88
2023-04-23T04:58:17.422Z,35.08
2023-04-23T05:00:46.301Z,36.00
2023-04-23T05:03:14.566Z,35.67
2023-04-23T05:05:45.116Z,34.65
2023-04-23T05:08:16.726Z,35.72
2023-04-23T05:10:44.859Z,35.22
2023-04-23T05:13:12.843Z,35.10
2023-04-23T05:15:40.817Z,38.17
2023-04-23T05:18:10.373Z,32.88
2023-04-23T05:20:38.570Z,36.58
2023-04-23T05:23:06.476Z,33.55
2023-04-23T05:25:35.903Z,34.45
2023-04-23T05:28:04.234Z,35.10
2023-04-23T05:30:32.197Z,35.60
2023-04-23T05:33:00.283Z,33.35
2023-04-23T05:35:28.279Z,34.15
2023-04-23T05:37:56.751Z,33.67
2023-04-23T05:40:24.656Z,35.53
2023-04-23T05:42:53.907Z,33.60
2023-04-23T05:45:21.932Z,35.65
2023-04-23T05:47:49.920Z,34.47
2023-04-23T05:50:18.017Z,37.58
2023-04-23T05:52:46.070Z,37.17
2023-04-23T05:55:15.685Z,31.20
2023-04-23T05:57:43.738Z,36.47
2023-04-23T06:00:14.202Z,32.83
2023-04-23T06:02:42.840Z,36.35
2023-04-23T06:05:11.729Z,33.03
2023-04-23T06:07:41.136Z,31.65
2023-04-23T06:10:09.908Z,33.22
2023-04-23T06:12:39.161Z,35.00
2023-04-23T06:15:08.780Z,31.50
2023-04-23T06:17:38.590Z,33.42
2023-04-23T06:20:08.996Z,34.53
2023-04-23T06:22:36.936Z,32.08
2023-04-23T06:25:05.505Z,31.30
2023-04-23T06:27:34.000Z,31.48
2023-04-23T06:30:01.967Z,31.85
2023-04-23T06:32:29.955Z,31.30
2023-04-23T06:35:02.110Z,29.40
2023-04-23T06:37:31.806Z,29.25
2023-04-23T06:40:00.430Z,26.37
2023-04-23T06:42:28.550Z,27.13
2023-04-23T06:44:56.625Z,27.48
2023-04-23T06:47:24.651Z,27.20
2023-04-23T06:49:52.554Z,28.90
2023-04-23T06:52:21.945Z,26.05
2023-04-23T06:54:49.939Z,27.40
2023-04-23T06:57:17.905Z,28.77
2023-04-23T06:59:48.221Z,29.13
2023-04-23T07:02:16.281Z,24.02
2023-04-23T07:04:44.536Z,25.58
2023-04-23T07:07:12.781Z,25.30
2023-04-23T07:09:42.148Z,24.90
2023-04-23T07:12:10.258Z,24.00
2023-04-23T07:14:38.203Z,20.92
2023-04-23T07:17:06.265Z,22.58
2023-04-23T07:19:34.290Z,20.70
2023-04-23T07:22:02.233Z,24.58
2023-04-23T07:24:30.177Z,22.90
2023-04-23T07:26:59.547Z,21.55
2023-04-23T07:29:27.519Z,20.85
2023-04-23T07:31:55.541Z,21.97
2023-04-23T07:34:23.574Z,20.30
2023-04-23T07:36:52.146Z,21.42
2023-04-23T07:39:20.175Z,18.83
2023-04-23T07:41:48.179Z,21.48
2023-04-23T07:44:17.589Z,20.85
2023-04-23T07:46:45.464Z,20.30
2023-04-23T07:49:13.404Z,19.25
2023-04-23T07:51:41.608Z,20.13
2023-04-23T07:54:09.742Z,20.98
2023-04-23T07:56:37.705Z,19.60
2023-04-23T07:59:06.686Z,22.15
2023-04-23T08:01:36.133Z,16.85
2023-04-23T08:04:04.324Z,19.08
2023-04-23T08:06:35.137Z,17.92
2023-04-23T08:09:06.262Z,17.20
2023-04-23T08:11:34.373Z,16.77
2023-04-23T08:14:02.558Z,18.35
2023-04-23T08:16:31.220Z,14.25
2023-04-23T08:21:32.593Z,14.05
2023-04-23T08:24:01.154Z,13.40
2023-04-23T08:26:29.144Z,13.43
2023-04-23T08:28:57.317Z,17.10
2023-04-23T08:31:27.179Z,12.63
2023-04-23T08:33:55.291Z,13.82
2023-04-23T08:36:24.666Z,9.52
2023-04-23T08:38:52.689Z,10.57
2023-04-23T08:41:24.411Z,15.07
2023-04-23T08:43:57.782Z,12.88
2023-04-23T08:46:29.276Z,13.27
2023-04-23T08:49:00.231Z,15.07
2023-04-23T08:51:33.802Z,9.85
2023-04-23T08:54:06.247Z,12.45
2023-04-23T08:56:35.094Z,16.88
2023-04-23T08:59:03.991Z,16.05
2023-04-23T09:01:32.383Z,17.97
2023-04-23T09:04:01.812Z,18.80
2023-04-23T09:06:32.245Z,16.42
2023-04-23T09:09:01.144Z,12.98
2023-04-23T09:11:30.409Z,12.55
2023-04-23T09:13:58.616Z,15.93
2023-04-23T09:16:27.753Z,13.07
2023-04-23T09:18:55.686Z,12.45
2023-04-23T09:21:23.629Z,15.05
2023-04-23T09:23:53.582Z,14.43
2023-04-23T09:26:22.558Z,12.02
2023-04-23T09:28:51.520Z,16.27
2023-04-23T09:31:22.859Z,12.55
2023-04-23T09:33:53.699Z,9.07
2023-04-23T09:36:28.400Z,10.28
2023-04-23T09:39:00.254Z,12.43
2023-04-23T09:41:30.418Z,8.43
2023-04-23T09:43:58.898Z,11.70
2023-04-23T09:46:37.443Z,10.93
2023-04-23T09:49:07.809Z,11.25
2023-04-23T09:51:39.026Z,14.70
2023-04-23T09:54:13.021Z,15.00
2023-04-23T09:56:41.351Z,9.70
2023-04-23T09:59:32.579Z,13.70
2023-04-23T10:02:09.571Z,14.60
2023-04-23T10:04:39.167Z,12.90
2023-04-23T10:09:45.875Z,10.77
2023-04-23T10:14:49.198Z,15.50
2023-04-23T10:17:17.690Z,11.77
2023-04-23T10:19:46.169Z,9.20
2023-04-23T10:22:19.848Z,11.35
2023-04-23T10:24:56.121Z,9.35
2023-04-23T10:27:40.583Z,10.20
2023-04-23T10:30:16.381Z,8.13
2023-04-23T10:32:46.149Z,12.30
2023-04-23T10:35:14.070Z,11.80
2023-04-23T10:37:42.957Z,7.53
2023-04-23T10:40:15.017Z,9.40
2023-04-23T10:42:45.039Z,9.20
2023-04-23T10:45:23.945Z,10.82
2023-04-23T10:47:55.997Z,8.57
2023-04-23T10:50:26.219Z,8.53
2023-04-23T10:52:55.295Z,10.90
2023-04-23T10:55:26.430Z,10.13
2023-04-23T10:58:01.224Z,10.88
2023-04-23T11:00:31.680Z,10.85
2023-04-23T11:02:59.727Z,10.18
2023-04-23T11:05:29.206Z,11.75
2023-04-23T11:08:18.786Z,6.32
2023-04-23T11:10:57.447Z,9.68
2023-04-23T11:13:26.432Z,11.13
2023-04-23T11:16:19.386Z,12.85
2023-04-23T11:19:02.960Z,6.07
2023-04-23T11:21:59.705Z,12.57
2023-04-23T11:24:29.578Z,13.65
2023-04-23T11:26:59.617Z,8.40
2023-04-23T11:29:28.935Z,7.20
2023-04-23T11:32:02.956Z,8.20
2023-04-23T11:34:31.834Z,8.35
2023-04-23T11:37:00.874Z,7.72
2023-04-23T11:39:28.790Z,6.50
2023-04-23T11:41:59.299Z,6.80
2023-04-23T11:44:28.170Z,8.60
2023-04-23T11:46:58.400Z,6.60
2023-04-23T11:49:26.466Z,5.55
2023-04-23T11:51:54.388Z,8.25
2023-04-23T11:54:27.481Z,8.87
2023-04-23T11:56:56.491Z,7.97
2023-04-23T11:59:25.841Z,7.05
2023-04-23T12:01:56.358Z,6.38
2023-04-23T12:04:26.239Z,9.07
2023-04-23T12:06:56.633Z,9.32
2023-04-23T12:09:26.218Z,9.18
2023-04-23T12:11:54.517Z,7.97
2023-04-23T12:14:29.890Z,6.13
2023-04-23T12:16:58.672Z,6.05
2023-04-23T12:19:31.471Z,6.32
2023-04-23T12:22:00.904Z,5.95
2023-04-23T12:24:30.239Z,8.40
2023-04-23T12:27:00.590Z,5.30
2023-04-23T12:29:32.049Z,10.00
2023-04-23T12:32:01.263Z,5.13
2023-04-23T12:34:29.213Z,4.93
2023-04-23T12:36:57.633Z,6.95
2023-04-23T12:39:29.343Z,6.47
2023-04-23T12:42:01.518Z,4.18
2023-04-23T12:44:31.382Z,5.73
2023-04-23T12:47:00.635Z,3.83
2023-04-23T12:49:41.323Z,3.60
2023-04-23T12:52:12.095Z,5.55
2023-04-23T12:54:41.671Z,5.90
2023-04-23T12:57:14.188Z,6.75
2023-04-23T12:59:43.990Z,3.92
2023-04-23T13:02:12.196Z,8.97
2023-04-23T13:04:40.190Z,11.40
2023-04-23T13:07:09.503Z,8.95
2023-04-23T13:09:37.379Z,8.27
2023-04-23T13:12:05.531Z,6.87
2023-04-23T13:14:33.662Z,7.93
2023-04-23T13:17:02.872Z,4.10
2023-04-23T13:19:31.555Z,6.63
2023-04-23T13:21:59.467Z,6.65
2023-04-23T13:24:27.294Z,6.35
2023-04-23T13:26:56.979Z,3.70
2023-04-23T13:29:27.216Z,4.63
2023-04-23T13:31:55.201Z,4.70
2023-04-23T13:34:24.611Z,3.67
2023-04-23T13:36:52.543Z,8.05
2023-04-23T13:39:21.418Z,5.40
2023-04-23T13:41:56.327Z,4.00
2023-04-23T13:44:30.622Z,4.93
2023-04-23T13:46:59.358Z,6.63
2023-04-23T13:49:28.868Z,5.03
2023-04-23T13:52:00.161Z,5.55
2023-04-23T13:54:29.287Z,3.00
2023-04-23T13:56:57.320Z,4.03
2023-04-23T13:59:25.393Z,4.50
2023-04-23T14:01:53.691Z,4.03
2023-04-23T14:04:23.791Z,4.85
2023-04-23T14:06:53.094Z,3.50
2023-04-23T14:09:22.109Z,5.95
2023-04-23T14:11:50.064Z,7.82
2023-04-23T14:14:18.014Z,6.30
2023-04-23T14:16:45.895Z,5.70
2023-04-23T14:19:13.881Z,4.25
2023-04-23T14:21:41.737Z,5.60
2023-04-23T14:24:19.530Z,6.80
2023-04-23T14:26:49.797Z,7.07
2023-04-23T14:29:30.041Z,7.53
2023-04-23T14:31:57.921Z,5.40
2023-04-23T14:34:25.813Z,8.40
2023-04-23T14:36:54.246Z,7.90
2023-04-23T14:39:25.693Z,6.17
2023-04-23T14:41:54.107Z,4.80
2023-04-23T14:44:23.281Z,5.18
2023-04-23T14:46:51.535Z,5.03
2023-04-23T14:49:20.707Z,5.57
2023-04-23T14:51:49.972Z,7.35
2023-04-23T14:54:17.870Z,7.65
2023-04-23T14:56:47.160Z,4.73
2023-04-23T14:59:15.126Z,5.35
2023-04-23T15:01:43.153Z,8.27
2023-04-23T15:04:11.808Z,6.47
2023-04-23T15:06:40.623Z,9.60
2023-04-23T15:09:09.159Z,6.15
2023-04-23T15:11:38.713Z,5.70
2023-04-23T15:14:19.465Z,6.97
2023-04-23T15:16:49.425Z,4.90
2023-04-23T15:19:18.893Z,4.95
2023-04-23T15:21:47.370Z,10.98
2023-04-23T15:24:15.819Z,5.70
2023-04-23T15:26:45.586Z,8.35
2023-04-23T15:29:14.957Z,4.97
2023-04-23T15:31:43.229Z,7.18
2023-04-23T15:34:12.156Z,4.85
2023-04-23T15:36:40.452Z,5.63
2023-04-23T15:39:09.172Z,2.77
2023-04-23T15:41:40.343Z,6.18
2023-04-23T15:44:11.864Z,3.17
2023-04-23T15:46:41.302Z,4.80
2023-04-23T15:49:09.336Z,2.55
2023-04-23T15:51:37.480Z,3.50
2023-04-23T15:54:08.286Z,5.07
2023-04-23T15:56:36.938Z,6.07
2023-04-23T15:59:04.862Z,4.47
2023-04-23T16:01:51.759Z,3.93
2023-04-23T16:04:19.823Z,5.13
2023-04-23T16:06:47.856Z,5.45
2023-04-23T16:09:15.742Z,5.90
2023-04-23T16:11:43.612Z,5.10
2023-04-23T16:14:11.440Z,3.80
2023-04-23T16:16:39.619Z,3.50
2023-04-23T16:19:08.950Z,3.80
2023-04-23T16:21:36.855Z,5.40
2023-04-23T16:24:07.380Z,2.50
2023-04-23T16:26:35.682Z,2.67
2023-04-23T16:29:11.659Z,5.45
2023-04-23T16:31:49.415Z,2.90
2023-04-23T16:34:18.644Z,4.05
2023-04-23T16:36:46.549Z,6.05
2023-04-23T16:39:14.433Z,5.03
2023-04-23T16:41:42.245Z,6.13
2023-04-23T16:44:10.158Z,2.58
2023-04-23T16:46:38.230Z,3.70
2023-04-23T16:49:06.276Z,3.80
2023-04-23T16:51:35.474Z,3.75
2023-04-23T16:54:03.366Z,3.83
2023-04-23T16:56:31.204Z,31.23
2023-04-23T16:58:59.947Z,35.40
2023-04-23T17:01:27.910Z,33.50
2023-04-23T17:03:55.964Z,28.23
2023-04-23T17:06:28.317Z,23.67
2023-04-23T17:08:59.170Z,19.80
2023-04-23T17:11:27.421Z,15.55
2023-04-23T17:13:56.238Z,15.65
2023-04-23T17:16:25.240Z,13.15
2023-04-23T17:18:53.364Z,13.43
2023-04-23T17:21:21.672Z,10.20
2023-04-23T17:23:49.578Z,10.43
2023-04-23T17:26:19.149Z,10.00
2023-04-23T17:28:47.055Z,7.00
2023-04-23T17:31:15.192Z,7.63
2023-04-23T17:33:46.992Z,7.07
2023-04-23T17:36:15.783Z,7.83
2023-04-23T17:38:43.750Z,7.18
2023-04-23T17:41:11.665Z,4.93
2023-04-23T17:43:41.042Z,6.32
2023-04-23T17:46:08.965Z,4.35
2023-04-23T17:48:36.899Z,5.10
2023-04-23T17:51:05.046Z,4.90
2023-04-23T17:53:32.958Z,4.57
2023-04-23T17:56:02.937Z,4.80
2023-04-23T17:58:31.599Z,2.75
2023-04-23T18:01:00.966Z,3.10
2023-04-23T18:03:35.798Z,2.44
2023-04-23T18:06:04.141Z,2.70
2023-04-23T18:08:32.071Z,6.88
2023-04-23T18:11:00.623Z,3.43
2023-04-23T18:13:28.580Z,3.67
2023-04-23T18:15:56.808Z,2.03
2023-04-23T18:18:26.188Z,2.88
2023-04-23T18:20:54.405Z,3.70
2023-04-23T18:23:22.507Z,2.97
2023-04-23T18:25:50.584Z,3.67
2023-04-23T18:28:18.537Z,2.72
2023-04-23T18:30:46.546Z,2.05
2023-04-23T18:33:31.896Z,3.00
2023-04-23T18:36:05.615Z,3.22
2023-04-23T18:38:40.593Z,2.83
2023-04-23T18:41:08.457Z,2.30
2023-04-23T18:43:36.365Z,3.42
2023-04-23T18:46:04.598Z,2.00
2023-04-23T18:48:47.956Z,3.55
2023-04-23T18:51:21.268Z,3.70
2023-04-23T18:53:49.730Z,3.10
2023-04-23T18:56:17.640Z,3.10
2023-04-23T18:58:45.547Z,3.25
2023-04-23T19:01:14.213Z,3.28
2023-04-23T19:03:43.922Z,2.58
2023-04-23T19:06:11.943Z,3.25
2023-04-23T19:08:39.815Z,2.70
2023-04-23T19:11:07.691Z,2.70
2023-04-23T19:13:35.562Z,2.63
2023-04-23T19:16:03.498Z,3.55
2023-04-23T19:18:31.435Z,4.90
2023-04-23T19:21:00.681Z,3.90
2023-04-23T19:23:28.687Z,2.57
2023-04-23T19:25:57.253Z,4.70
2023-04-23T19:28:25.623Z,2.85
2023-04-23T19:30:53.647Z,2.45
2023-04-23T19:33:21.493Z,6.50
2023-04-23T19:35:49.892Z,4.40
2023-04-23T19:38:20.058Z,4.50
2023-04-23T19:40:48.114Z,3.30
2023-04-23T19:43:16.132Z,4.97
2023-04-23T19:45:44.056Z,3.80
2023-04-23T19:48:11.941Z,3.08
2023-04-23T19:50:39.927Z,4.10
2023-04-23T19:53:07.850Z,3.13
2023-04-23T19:55:37.389Z,3.92
2023-04-23T19:58:06.465Z,3.72
2023-04-23T20:00:39.471Z,3.92
2023-04-23T20:03:08.228Z,3.30
2023-04-23T20:05:36.333Z,3.13
2023-04-23T20:08:11.181Z,4.60
2023-04-23T20:10:40.407Z,3.20
2023-04-23T20:13:08.313Z,4.30
2023-04-23T20:15:36.726Z,4.13
2023-04-23T20:18:04.856Z,5.30
2023-04-23T20:20:33.886Z,3.90
2023-04-23T20:23:01.778Z,3.20
2023-04-23T20:25:29.662Z,4.70
2023-04-23T20:27:58.976Z,4.80
2023-04-23T20:30:26.968Z,3.00
2023-04-23T20:32:54.860Z,3.50
2023-04-23T20:35:22.703Z,4.40
2023-04-23T20:37:50.599Z,2.95
2023-04-23T20:40:18.957Z,2.40
2023-04-23T20:42:51.348Z,2.08
2023-04-23T20:45:22.374Z,1.70
2023-04-23T20:47:51.396Z,1.60
2023-04-23T20:50:19.398Z,3.50
2023-04-23T20:52:47.309Z,1.15
2023-04-23T20:55:15.279Z,1.20
2023-04-23T20:57:43.121Z,1.10
2023-04-23T21:00:12.754Z,1.60
2023-04-23T21:02:42.508Z,1.20
2023-04-23T21:05:13.277Z,0.85
2023-04-23T21:07:41.179Z,0.80
2023-04-23T21:10:09.549Z,1.20
2023-04-23T21:12:37.596Z,0.90
2023-04-23T21:15:06.506Z,0.98
2023-04-23T21:17:34.419Z,0.90
2023-04-23T21:20:05.072Z,1.05
2023-04-23T21:22:32.944Z,2.10
2023-04-23T21:25:00.787Z,1.30
2023-04-23T21:27:28.778Z,1.25
2023-04-23T21:29:57.533Z,1.27
2023-04-23T21:32:25.583Z,1.60
2023-04-23T21:34:53.588Z,3.00
2023-04-23T21:37:22.875Z,1.50
2023-04-23T21:39:50.816Z,1.15
2023-04-23T21:42:18.674Z,1.50
2023-04-23T21:44:46.611Z,1.60
2023-04-23T21:47:14.510Z,2.58
2023-04-23T21:49:43.461Z,1.48
2023-04-23T21:52:11.567Z,1.70
2023-04-23T21:54:40.727Z,1.77
2023-04-23T21:57:08.589Z,2.50
2023-04-23T21:59:36.604Z,2.70
2023-04-23T22:02:04.621Z,2.00
2023-04-23T22:04:32.603Z,2.05
2023-04-23T22:07:03.173Z,1.60
2023-04-23T22:09:31.108Z,2.40
2023-04-23T22:12:01.865Z,3.05
2023-04-23T22:14:30.551Z,2.90
2023-04-23T22:16:59.406Z,3.50
2023-04-23T22:19:27.432Z,4.80
2023-04-23T22:21:55.600Z,4.57
2023-04-23T22:24:23.778Z,4.72
2023-04-23T22:26:51.696Z,4.10
2023-04-23T22:29:21.056Z,3.90
2023-04-23T22:31:48.968Z,2.80
2023-04-23T22:34:19.219Z,2.20
2023-04-23T22:36:47.165Z,2.28
2023-04-23T22:39:15.000Z,1.58
2023-04-23T22:41:42.929Z,4.13
2023-04-23T22:44:10.795Z,1.40
2023-04-23T22:46:40.392Z,3.03
2023-04-23T22:49:11.053Z,2.40
2023-04-23T22:51:39.647Z,2.27
2023-04-23T22:54:07.627Z,2.22
2023-04-23T22:56:35.798Z,1.75
2023-04-23T22:59:05.021Z,1.85
2023-04-23T23:01:33.139Z,3.42
2023-04-23T23:04:02.466Z,2.55
2023-04-23T23:06:30.442Z,1.38
2023-04-23T23:08:58.543Z,5.40
2023-04-23T23:11:28.675Z,1.73
2023-04-23T23:13:57.240Z,1.40
2023-04-23T23:16:25.522Z,1.15
2023-04-23T23:18:53.841Z,4.20
2023-04-23T23:21:23.190Z,0.65
2023-04-23T23:23:51.195Z,1.60
2023-04-23T23:26:19.991Z,1.80
2023-04-23T23:28:47.918Z,3.90
2023-04-23T23:31:16.183Z,4.85
2023-04-23T23:33:44.037Z,2.50
2023-04-23T23:36:11.941Z,1.33
2023-04-23T23:38:41.194Z,1.98
2023-04-23T23:41:09.128Z,2.63
2023-04-23T23:43:37.050Z,5.35
2023-04-23T23:46:05.092Z,1.40
2023-04-23T23:48:32.977Z,1.40
2023-04-23T23:51:00.873Z,2.70
2023-04-23T23:53:28.750Z,0.65
2023-04-23T23:55:58.458Z,2.92
2023-04-23T23:58:26.340Z,1.50
